Time;durP1;ratioP1;P1;durP2;ratioP2;P2;SDS_P1;SDS_P2;PMS_P1;PMS_P2;Temp;Humidity;BMP_temperature;BMP_pressure;BME280_temperature;BME280_humidity;BME280_pressure;Samples;Min_cycle;Max_cycle;Signal;HPM_P1;HPM_P2
2023/10/24 00:01:48;;;;;;;0.50;0.50;;;;;;;10.98;86.02;97634.31;5000036;28;20049;-77
2023/10/24 00:04:14;;;;;;;0.50;0.50;;;;;;;10.86;86.36;97632.38;4999624;28;20117;-77
2023/10/24 00:06:39;;;;;;;0.40;0.40;;;;;;;10.80;86.63;97637.66;4998776;28;20037;-77
2023/10/24 00:09:05;;;;;;;0.50;0.50;;;;;;;11.07;85.58;97629.06;5001678;28;20044;-77
2023/10/24 00:11:30;;;;;;;0.47;0.47;;;;;;;10.99;85.99;97610.28;5000679;28;20053;-77
2023/10/24 00:13:56;;;;;;;0.50;0.50;;;;;;;10.81;86.49;97593.19;4999144;28;20109;-78
2023/10/24 00:16:21;;;;;;;0.40;0.40;;;;;;;10.67;86.81;97582.38;4999865;28;20407;-78
2023/10/24 00:18:47;;;;;;;0.50;0.50;;;;;;;10.89;86.66;97586.16;5001111;28;20045;-79
2023/10/24 00:21:12;;;;;;;0.50;0.50;;;;;;;10.79;87.08;97587.88;5003930;28;20034;-78
2023/10/24 00:23:38;;;;;;;0.50;0.50;;;;;;;10.61;87.66;97583.22;5004439;28;20076;-78
2023/10/24 00:26:03;;;;;;;0.45;0.45;;;;;;;10.52;88.12;97585.78;4988357;28;20041;-79
2023/10/24 00:28:29;;;;;;;0.50;0.50;;;;;;;10.51;88.21;97584.91;4988095;28;20049;-79
2023/10/24 00:30:55;;;;;;;0.40;0.40;;;;;;;10.52;88.13;97581.34;5002140;28;20141;-78
2023/10/24 00:33:21;;;;;;;0.50;0.50;;;;;;;10.52;88.16;97597.34;5003527;28;20492;-78
2023/10/24 00:35:46;;;;;;;0.50;0.50;;;;;;;10.49;88.58;97607.06;5003874;28;20049;-78
2023/10/24 00:38:12;;;;;;;0.50;0.50;;;;;;;10.65;87.91;97608.16;5007199;28;20049;-78
2023/10/24 00:40:38;;;;;;;0.50;0.50;;;;;;;10.57;88.09;97607.19;5003453;28;20038;-79
2023/10/24 00:43:04;;;;;;;0.40;0.40;;;;;;;10.63;87.76;97605.47;5004138;28;20096;-78
2023/10/24 00:45:30;;;;;;;0.50;0.50;;;;;;;10.53;88.16;97604.47;5003515;28;20563;-79
2023/10/24 00:47:56;;;;;;;0.50;0.50;;;;;;;10.48;88.51;97605.28;5005733;28;20415;-78
2023/10/24 00:50:21;;;;;;;0.50;0.50;;;;;;;10.42;88.82;97623.91;5000843;28;20100;-78
2023/10/24 00:52:47;;;;;;;0.50;0.50;;;;;;;10.40;89.05;97617.66;5003125;28;20080;-79
2023/10/24 00:55:14;;;;;;;0.50;0.50;;;;;;;10.40;88.51;97607.00;5003496;28;20034;-78
2023/10/24 00:57:40;;;;;;;0.50;0.50;;;;;;;10.38;89.01;97616.75;5002060;28;20030;-78
2023/10/24 01:00:10;;;;;;;0.40;0.40;;;;;;;10.35;89.07;97614.03;4998660;28;20038;-78
2023/10/24 01:05:13;;;;;;;0.50;0.50;;;;;;;10.30;89.62;97615.75;5005803;28;20046;-83
2023/10/24 01:07:38;;;;;;;0.50;0.50;;;;;;;10.22;90.00;97592.53;5012222;28;20381;-85
2023/10/24 01:10:04;;;;;;;0.50;0.50;;;;;;;10.17;89.94;97594.25;4992629;28;20049;-86
2023/10/24 01:12:32;;;;;;;0.50;0.50;;;;;;;10.24;89.40;97600.56;5008959;28;20038;-83
2023/10/24 01:14:57;;;;;;;0.55;0.55;;;;;;;10.28;90.09;97599.72;4991490;28;20080;-86
2023/10/24 01:17:23;;;;;;;0.40;0.40;;;;;;;10.28;90.09;97594.41;5023938;28;20041;-83
2023/10/24 01:19:48;;;;;;;0.50;0.50;;;;;;;10.32;89.61;97592.69;5003601;28;20037;-84
2023/10/24 01:22:14;;;;;;;0.40;0.40;;;;;;;10.28;89.88;97599.72;5014307;28;20049;-86
2023/10/24 01:24:41;;;;;;;0.50;0.50;;;;;;;10.38;89.15;97580.28;5003146;28;20049;-85
2023/10/24 01:27:07;;;;;;;0.52;0.52;;;;;;;10.24;89.34;97576.59;5014256;28;20037;-84
2023/10/24 01:29:33;;;;;;;0.60;0.60;;;;;;;10.23;89.40;97569.44;5015525;28;20036;-83
2023/10/24 01:31:58;;;;;;;0.40;0.40;;;;;;;10.22;89.70;97565.00;5011665;28;20057;-84
2023/10/24 01:34:24;;;;;;;0.40;0.40;;;;;;;10.13;90.30;97564.88;5022443;28;20049;-82
2023/10/24 01:36:49;;;;;;;0.40;0.40;;;;;;;10.03;90.54;97564.75;5002641;28;20033;-84
2023/10/24 01:39:15;;;;;;;0.50;0.50;;;;;;;9.97;90.34;97569.13;5000138;28;20109;-86
2023/10/24 01:41:42;;;;;;;0.47;0.47;;;;;;;9.95;90.39;97563.75;5008409;28;20035;-84
2023/10/24 01:44:07;;;;;;;0.50;0.50;;;;;;;9.89;90.84;97568.13;5002492;28;20045;-86
2023/10/24 01:46:33;;;;;;;0.50;0.50;;;;;;;9.90;90.76;97568.13;5009025;28;20045;-84
2023/10/24 01:48:58;;;;;;;0.50;0.50;;;;;;;10.02;90.83;97562.09;4984916;28;20037;-85
2023/10/24 01:51:24;;;;;;;0.50;0.50;;;;;;;10.00;90.80;97564.72;4986095;28;20035;-85
2023/10/24 01:53:49;;;;;;;0.50;0.50;;;;;;;10.08;90.77;97567.47;5004973;28;20038;-87
2023/10/24 01:56:15;;;;;;;0.40;0.40;;;;;;;10.04;90.89;97565.66;4989645;28;20026;-83
2023/10/24 01:58:40;;;;;;;0.50;0.50;;;;;;;10.13;90.54;97570.19;5000444;28;20073;-84
2023/10/24 02:01:07;;;;;;;0.43;0.43;;;;;;;10.11;90.51;97569.28;4973332;28;20034;-84
2023/10/24 02:03:33;;;;;;;0.47;0.47;;;;;;;10.09;90.61;97555.94;4982192;28;20030;-85
2023/10/24 02:06:12;;;;;;;0.50;0.50;;;;;;;10.15;90.23;97544.44;4991661;28;20042;-86
2023/10/24 02:08:38;;;;;;;0.50;0.50;;;;;;;10.27;90.23;97540.19;4974774;28;20077;-85
2023/10/24 02:11:04;;;;;;;0.50;0.50;;;;;;;10.26;89.82;97543.75;4989524;28;20390;-84
2023/10/24 02:13:29;;;;;;;0.50;0.50;;;;;;;10.32;89.84;97552.69;4988767;28;20038;-85
2023/10/24 02:15:55;;;;;;;0.50;0.50;;;;;;;10.25;89.93;97551.72;4972236;28;20076;-86
2023/10/24 02:18:20;;;;;;;0.50;0.50;;;;;;;10.24;89.88;97552.59;4995893;28;20112;-86
2023/10/24 02:20:46;;;;;;;0.50;0.50;;;;;;;10.19;89.81;97548.94;4983792;28;20044;-84
2023/10/24 02:23:11;;;;;;;0.50;0.50;;;;;;;10.19;90.20;97556.94;5010826;28;20042;-84
2023/10/24 02:25:37;;;;;;;0.43;0.43;;;;;;;10.23;89.84;97562.31;5009347;28;20038;-85
2023/10/24 02:28:03;;;;;;;0.40;0.40;;;;;;;10.15;90.02;97564.00;4994104;28;20050;-84
2023/10/24 02:30:29;;;;;;;0.52;0.52;;;;;;;10.13;90.40;97557.78;5001305;28;20039;-85
2023/10/24 02:33:00;;;;;;;0.47;0.47;;;;;;;10.16;90.24;97563.16;4997545;28;20057;-83
2023/10/24 02:35:26;;;;;;;0.40;0.40;;;;;;;10.19;89.95;97571.16;4993118;28;20042;-85
2023/10/24 02:37:52;;;;;;;0.50;0.50;;;;;;;10.21;90.23;97574.75;4994518;28;20074;-84
2023/10/24 02:40:18;;;;;;;0.50;0.50;;;;;;;10.19;90.35;97578.25;4972692;28;20526;-83
2023/10/24 02:42:43;;;;;;;0.50;0.50;;;;;;;10.21;90.25;97580.09;4989808;28;20039;-83
2023/10/24 02:45:10;;;;;;;0.50;0.50;;;;;;;10.13;90.64;97568.44;4993036;28;20030;-83
2023/10/24 02:47:36;;;;;;;0.40;0.40;;;;;;;10.13;90.03;97564.88;4984150;28;20045;-84
2023/10/24 02:50:01;;;;;;;0.40;0.40;;;;;;;10.16;90.41;97576.47;4996209;28;20369;-84
2023/10/24 02:52:29;;;;;;;0.40;0.40;;;;;;;10.14;90.47;97575.53;4996424;28;20084;-85
2023/10/24 02:54:54;;;;;;;0.40;0.40;;;;;;;10.07;90.47;97571.03;4978352;28;20038;-84
2023/10/24 02:57:20;;;;;;;0.40;0.40;;;;;;;10.13;90.63;97565.75;5001769;28;20449;-85
2023/10/24 03:00:24;;;;;;;0.50;0.50;;;;;;;10.10;90.66;97567.50;5003272;28;20050;-85
2023/10/24 03:02:51;;;;;;;0.50;0.50;;;;;;;10.08;90.70;97567.47;4981788;28;20396;-84
2023/10/24 03:05:16;;;;;;;0.50;0.50;;;;;;;10.11;90.53;97567.53;4981277;28;20065;-84
2023/10/24 03:07:42;;;;;;;0.50;0.50;;;;;;;10.08;90.65;97569.25;4992406;28;20038;-85
2023/10/24 03:10:08;;;;;;;0.50;0.50;;;;;;;10.06;91.13;97576.31;4993812;28;20089;-84
2023/10/24 03:12:33;;;;;;;0.50;0.50;;;;;;;10.04;91.08;97578.97;4993448;28;20077;-85
2023/10/24 03:14:59;;;;;;;0.50;0.50;;;;;;;10.05;91.13;97574.53;4994006;28;20042;-84
2023/10/24 03:17:26;;;;;;;0.50;0.50;;;;;;;10.07;91.19;97578.13;4983740;28;20053;-84
2023/10/24 03:19:52;;;;;;;0.50;0.50;;;;;;;10.10;91.08;97576.38;4961898;28;20035;-84
2023/10/24 03:22:19;;;;;;;0.50;0.50;;;;;;;10.24;90.52;97581.91;4987714;28;20121;-87
2023/10/24 03:24:44;;;;;;;0.50;0.50;;;;;;;10.23;90.16;97573.00;4982205;28;20887;-83
2023/10/24 03:27:12;;;;;;;0.50;0.50;;;;;;;10.22;90.29;97565.00;4974002;28;20042;-83
2023/10/24 03:29:40;;;;;;;0.50;0.50;;;;;;;10.08;90.82;97559.50;4983033;28;20034;-83
2023/10/24 03:32:07;;;;;;;0.50;0.50;;;;;;;10.01;91.18;97563.84;4992612;28;20054;-84
2023/10/24 03:34:35;;;;;;;0.60;0.60;;;;;;;10.05;91.05;97561.22;4985421;28;20083;-85
2023/10/24 03:37:02;;;;;;;0.50;0.50;;;;;;;10.15;90.91;97565.78;5007555;28;20034;-84
2023/10/24 03:39:28;;;;;;;0.50;0.50;;;;;;;10.11;91.09;97556.88;4997555;28;20034;-85
2023/10/24 03:41:54;;;;;;;0.40;0.40;;;;;;;10.19;91.10;97554.28;4994560;28;20125;-84
2023/10/24 03:44:20;;;;;;;0.50;0.50;;;;;;;10.12;90.89;97541.78;4988465;28;20042;-85
2023/10/24 03:46:45;;;;;;;0.40;0.40;;;;;;;10.09;91.12;97534.63;5003234;28;20377;-85
2023/10/24 03:49:11;;;;;;;0.50;0.50;;;;;;;10.16;90.80;97544.50;4981063;28;20049;-85
2023/10/24 03:51:36;;;;;;;0.40;0.40;;;;;;;10.31;90.84;97529.59;4993547;28;20108;-85
2023/10/24 03:54:03;;;;;;;0.50;0.50;;;;;;;10.34;90.73;97542.91;4974358;28;20046;-84
2023/10/24 03:56:29;;;;;;;0.57;0.57;;;;;;;10.41;90.28;97529.69;4988099;28;20030;-84
2023/10/24 03:58:55;;;;;;;0.50;0.50;;;;;;;10.44;90.17;97532.41;4997180;28;20161;-84
2023/10/24 04:01:20;;;;;;;0.50;0.50;;;;;;;10.39;90.56;97515.44;4998887;28;20113;-85
2023/10/24 04:03:46;;;;;;;0.50;0.50;;;;;;;10.39;90.67;97517.19;4978566;28;20054;-84
2023/10/24 04:06:11;;;;;;;0.50;0.50;;;;;;;10.38;90.40;97513.66;4997993;28;20038;-88
2023/10/24 04:08:40;;;;;;;0.43;0.43;;;;;;;10.34;90.56;97522.47;5000919;28;20133;-84
2023/10/24 04:11:14;;;;;;;0.50;0.50;;;;;;;10.52;89.51;97512.00;4997990;28;20039;-86
2023/10/24 04:13:40;;;;;;;0.50;0.50;;;;;;;10.68;88.82;97520.16;4991826;28;20081;-86
2023/10/24 04:16:05;;;;;;;0.50;0.50;;;;;;;10.61;88.43;97513.00;5000618;28;20045;-85
2023/10/24 04:18:31;;;;;;;0.50;0.50;;;;;;;10.50;88.76;97515.56;4979068;28;20034;-84
2023/10/24 04:20:56;;;;;;;0.50;0.50;;;;;;;10.36;89.22;97507.41;4998367;28;20046;-84
2023/10/24 04:23:22;;;;;;;0.50;0.50;;;;;;;10.30;89.53;97499.38;4992690;28;20046;-85
2023/10/24 04:25:48;;;;;;;0.60;0.60;;;;;;;10.21;89.89;97501.91;4974798;28;20042;-85
2023/10/24 04:28:13;;;;;;;0.50;0.50;;;;;;;10.18;90.12;97499.19;4990013;28;20038;-84
2023/10/24 04:30:40;;;;;;;0.50;0.50;;;;;;;10.19;90.24;97496.53;5000511;28;20041;-84
2023/10/24 04:33:06;;;;;;;0.60;0.60;;;;;;;10.25;90.07;97493.06;4995831;28;20164;-85
2023/10/24 04:35:32;;;;;;;0.50;0.50;;;;;;;10.11;90.50;97494.66;4998354;28;20535;-85
2023/10/24 04:37:57;;;;;;;0.50;0.50;;;;;;;10.07;90.64;97490.19;5008260;28;20074;-86
2023/10/24 04:40:23;;;;;;;0.50;0.50;;;;;;;10.10;90.96;97498.19;5002215;28;20608;-84
2023/10/24 04:42:51;;;;;;;0.40;0.40;;;;;;;10.11;90.99;97498.25;4995052;28;20134;-86
2023/10/24 04:45:17;;;;;;;0.50;0.50;;;;;;;10.08;91.24;97497.31;4971755;28;20097;-86
2023/10/24 04:47:42;;;;;;;0.50;0.50;;;;;;;10.09;91.19;97491.97;4995550;28;20041;-85
2023/10/24 04:50:08;;;;;;;0.45;0.45;;;;;;;10.05;91.19;97479.50;5000184;28;20092;-85
2023/10/24 04:52:34;;;;;;;0.50;0.50;;;;;;;9.99;91.69;97480.31;4982414;28;20026;-86
2023/10/24 04:54:59;;;;;;;0.50;0.50;;;;;;;10.03;91.51;97479.50;5001873;28;20104;-85
2023/10/24 04:57:25;;;;;;;0.50;0.50;;;;;;;10.13;91.57;97487.59;4998971;28;20085;-85
2023/10/24 04:59:50;;;;;;;0.50;0.50;;;;;;;10.21;91.03;97493.91;4999951;28;20046;-85
2023/10/24 05:02:17;;;;;;;0.50;0.50;;;;;;;10.16;90.89;97490.28;5003144;28;20041;-87
2023/10/24 05:04:42;;;;;;;0.50;0.50;;;;;;;10.32;90.43;97486.94;4990919;28;20494;-87
2023/10/24 05:07:08;;;;;;;0.50;0.50;;;;;;;10.21;90.55;97493.91;4983698;28;20042;-85
2023/10/24 05:09:33;;;;;;;0.50;0.50;;;;;;;10.37;90.17;97497.63;4981888;28;20034;-86
2023/10/24 05:11:59;;;;;;;0.50;0.50;;;;;;;10.30;89.90;97491.38;4986110;28;20038;-87
2023/10/24 05:14:24;;;;;;;0.40;0.40;;;;;;;10.28;89.92;97491.31;4997584;28;20066;-83
2023/10/24 05:16:50;;;;;;;0.50;0.50;;;;;;;10.22;90.49;97477.91;4984876;28;20077;-87
2023/10/24 05:19:16;;;;;;;0.50;0.50;;;;;;;10.21;90.20;97478.78;4972343;28;20097;-87
2023/10/24 05:21:41;;;;;;;0.50;0.50;;;;;;;10.18;90.23;97477.88;4984736;28;20405;-84
2023/10/24 05:24:07;;;;;;;0.50;0.50;;;;;;;10.26;89.97;97489.53;4970945;28;20237;-84
2023/10/24 05:26:32;;;;;;;0.50;0.50;;;;;;;10.17;90.40;97470.75;4963899;28;20291;-85
2023/10/24 05:28:58;;;;;;;0.40;0.40;;;;;;;10.11;90.63;97466.25;4985201;28;20396;-85
2023/10/24 05:31:23;;;;;;;0.50;0.50;;;;;;;10.17;90.45;97449.44;4965617;28;20038;-86
2023/10/24 05:33:52;;;;;;;0.50;0.50;;;;;;;10.07;90.61;97450.22;4989104;28;20377;-83
2023/10/24 05:36:17;;;;;;;0.50;0.50;;;;;;;10.07;91.03;97447.56;4972443;28;20050;-83
2023/10/24 05:38:43;;;;;;;0.50;0.50;;;;;;;10.00;90.95;97450.13;4979325;28;20054;-84
2023/10/24 05:41:08;;;;;;;0.50;0.50;;;;;;;10.05;91.25;97452.84;4982596;28;20042;-84
2023/10/24 05:43:36;;;;;;;0.50;0.50;;;;;;;9.98;90.91;97459.00;4984928;28;20480;-84
2023/10/24 05:46:03;;;;;;;;;;;;;;;9.96;91.59;97447.41;4984808;28;20563;-84
2023/10/24 05:48:28;;;;;;;0.60;0.60;;;;;;;10.00;91.09;97439.47;4979517;28;20367;-85
2023/10/24 05:50:54;;;;;;;0.50;0.50;;;;;;;9.98;91.46;97435.91;4972984;28;20061;-84
2023/10/24 05:53:19;;;;;;;0.50;0.50;;;;;;;9.95;91.72;97437.66;4987568;28;20038;-84
2023/10/24 05:55:45;;;;;;;0.50;0.50;;;;;;;10.00;91.05;97457.22;4987239;28;20046;-84
2023/10/24 05:58:10;;;;;;;0.50;0.50;;;;;;;10.12;91.34;97445.81;4984887;28;20041;-85
2023/10/24 06:00:36;;;;;;;0.50;0.50;;;;;;;10.01;91.04;97449.28;4987415;28;20046;-84
2023/10/24 06:03:01;;;;;;;0.50;0.50;;;;;;;10.06;91.23;97443.06;4964946;28;20050;-85
2023/10/24 06:05:27;;;;;;;0.50;0.50;;;;;;;10.04;91.24;97448.41;4964688;28;20065;-84
2023/10/24 06:07:52;;;;;;;0.40;0.40;;;;;;;10.09;91.06;97444.00;4985990;28;20035;-84
2023/10/24 06:10:18;;;;;;;0.50;0.50;;;;;;;10.15;90.54;97449.38;4987772;28;20053;-84
2023/10/24 06:12:43;;;;;;;0.50;0.50;;;;;;;10.12;90.90;97440.50;4987015;28;20111;-84
2023/10/24 06:15:10;;;;;;;0.50;0.50;;;;;;;10.11;90.68;97439.59;4988913;28;20034;-85
2023/10/24 06:17:35;;;;;;;0.50;0.50;;;;;;;10.03;90.81;97444.84;4987025;28;20046;-84
2023/10/24 06:20:01;;;;;;;0.50;0.50;;;;;;;9.98;90.97;97443.91;4988796;28;20042;-85
2023/10/24 06:22:28;;;;;;;0.50;0.50;;;;;;;9.99;90.94;97448.34;4986772;28;20451;-84
2023/10/24 06:24:55;;;;;;;0.43;0.43;;;;;;;10.04;91.14;97461.72;4987018;28;20054;-85
2023/10/24 06:27:20;;;;;;;0.60;0.60;;;;;;;10.05;90.88;97451.97;4969721;28;20069;-85
2023/10/24 06:29:46;;;;;;;0.50;0.50;;;;;;;10.08;91.13;97468.88;4985088;28;20072;-84
2023/10/24 06:32:11;;;;;;;0.50;0.50;;;;;;;10.16;90.90;97467.19;4970568;28;20688;-85
2023/10/24 06:34:37;;;;;;;0.50;0.50;;;;;;;10.17;90.78;97471.66;4971352;28;20042;-85
2023/10/24 06:37:03;;;;;;;0.50;0.50;;;;;;;10.17;91.07;97463.66;4989400;28;20054;-85
2023/10/24 06:39:29;;;;;;;0.50;0.50;;;;;;;10.26;90.46;97476.22;4987258;28;20049;-84
2023/10/24 06:41:55;;;;;;;0.50;0.50;;;;;;;10.29;90.69;97462.91;4986142;28;20057;-84
2023/10/24 06:44:21;;;;;;;0.50;0.50;;;;;;;10.33;89.83;97446.06;4985839;28;20550;-84
2023/10/24 06:46:47;;;;;;;0.50;0.50;;;;;;;10.42;89.93;97435.47;4986024;28;20042;-84
2023/10/24 06:49:12;;;;;;;0.50;0.50;;;;;;;10.45;89.46;97438.19;4987944;28;20045;-85
2023/10/24 06:51:38;;;;;;;0.60;0.60;;;;;;;10.59;88.94;97427.63;4988317;28;20038;-84
2023/10/24 06:54:03;;;;;;;0.50;0.50;;;;;;;10.57;88.98;97434.72;4958022;28;20051;-85
2023/10/24 06:56:29;;;;;;;0.50;0.50;;;;;;;10.60;88.82;97441.84;4987941;28;20161;-84
2023/10/24 06:58:54;;;;;;;0.50;0.50;;;;;;;10.65;88.95;97438.34;4969285;28;20042;-85
2023/10/24 07:01:20;;;;;;;0.50;0.50;;;;;;;10.66;88.88;97432.13;4963649;28;20034;-85
2023/10/24 07:03:45;;;;;;;0.40;0.40;;;;;;;10.65;88.87;97438.34;4984425;28;20082;-85
2023/10/24 07:06:11;;;;;;;0.50;0.50;;;;;;;10.68;88.81;97441.06;4973818;28;20076;-86
2023/10/24 07:08:36;;;;;;;0.50;0.50;;;;;;;10.76;88.54;97443.75;4988741;28;20053;-85
2023/10/24 07:11:03;;;;;;;0.50;0.50;;;;;;;10.77;88.53;97450.88;4975578;28;20050;-87
2023/10/24 07:13:29;;;;;;;0.50;0.50;;;;;;;10.86;88.30;97447.38;4986215;28;20089;-85
2023/10/24 07:15:54;;;;;;;0.50;0.50;;;;;;;10.91;87.42;97450.97;4965280;28;20061;-86
2023/10/24 07:18:20;;;;;;;0.40;0.40;;;;;;;10.84;87.70;97450.06;4987257;28;20046;-85
2023/10/24 07:20:45;;;;;;;0.40;0.40;;;;;;;10.79;87.83;97454.47;4988266;28;20038;-85
2023/10/24 07:23:11;;;;;;;0.50;0.50;;;;;;;10.82;87.95;97449.13;4971080;28;20042;-85
2023/10/24 07:25:36;;;;;;;0.50;0.50;;;;;;;10.86;88.25;97458.94;4987834;28;20034;-85
2023/10/24 07:28:03;;;;;;;0.50;0.50;;;;;;;10.82;88.01;97465.13;4985195;28;20034;-84
2023/10/24 07:30:29;;;;;;;0.60;0.60;;;;;;;10.82;88.23;97472.25;4963359;28;20530;-85
2023/10/24 07:32:55;;;;;;;0.50;0.50;;;;;;;10.79;88.55;97479.38;4974556;28;20046;-85
2023/10/24 07:35:22;;;;;;;0.45;0.45;;;;;;;10.94;87.65;97481.25;4987570;28;20087;-84
2023/10/24 07:37:47;;;;;;;0.53;0.53;;;;;;;10.81;88.61;97478.47;4990068;28;20530;-84
2023/10/24 07:40:13;;;;;;;0.50;0.50;;;;;;;10.73;89.06;97495.31;4988453;28;20066;-84
2023/10/24 07:42:38;;;;;;;0.40;0.40;;;;;;;10.67;89.30;97494.34;4990316;28;20065;-84
2023/10/24 07:45:04;;;;;;;0.40;0.40;;;;;;;10.70;89.36;97484.63;4992085;28;20045;-84
2023/10/24 07:47:30;;;;;;;0.47;0.47;;;;;;;10.69;89.59;97484.63;4992352;28;20049;-84
2023/10/24 07:49:55;;;;;;;0.50;0.50;;;;;;;10.70;89.36;97473.94;4987833;28;20040;-84
2023/10/24 07:52:21;;;;;;;0.50;0.50;;;;;;;10.64;89.88;97462.34;4990180;28;20863;-86
2023/10/24 07:54:46;;;;;;;0.50;0.50;;;;;;;10.61;90.05;97467.66;4988283;28;20085;-87
2023/10/24 07:57:12;;;;;;;0.50;0.50;;;;;;;10.66;89.94;97455.25;4969585;28;20034;-86
2023/10/24 07:59:38;;;;;;;0.45;0.45;;;;;;;10.70;89.65;97459.72;4970932;28;20054;-86
2023/10/24 08:02:03;;;;;;;0.50;0.50;;;;;;;10.71;89.74;97456.16;4989123;28;20038;-87
2023/10/24 08:04:29;;;;;;;0.55;0.55;;;;;;;10.71;89.64;97446.38;4961511;28;20046;-84
2023/10/24 08:06:55;;;;;;;0.50;0.50;;;;;;;10.97;89.37;97449.25;4989191;28;20034;-83
2023/10/24 08:09:21;;;;;;;0.60;0.60;;;;;;;10.99;89.16;97460.81;4990854;28;20495;-85
2023/10/24 08:11:47;;;;;;;0.60;0.60;;;;;;;10.91;88.97;97462.53;4978750;28;20043;-84
2023/10/24 08:14:13;;;;;;;0.50;0.50;;;;;;;10.96;89.31;97459.91;4966826;28;20030;-84
2023/10/24 08:16:39;;;;;;;0.50;0.50;;;;;;;10.96;89.29;97467.91;4989800;28;20050;-85
2023/10/24 08:19:04;;;;;;;0.60;0.60;;;;;;;11.04;89.48;97460.88;4994314;28;20034;-85
2023/10/24 08:21:30;;;;;;;0.50;0.50;;;;;;;11.00;88.90;97467.06;4987406;28;20439;-83
2023/10/24 08:23:56;;;;;;;0.50;0.50;;;;;;;11.08;89.49;97476.03;4987167;28;20141;-85
2023/10/24 08:26:22;;;;;;;0.57;0.57;;;;;;;11.04;89.13;97475.09;4969824;28;20104;-84
2023/10/24 08:28:47;;;;;;;0.52;0.52;;;;;;;11.04;89.13;97468.88;4989686;28;20057;-86
2023/10/24 08:31:13;;;;;;;0.50;0.50;;;;;;;11.00;89.18;97472.41;4969021;28;20094;-84
2023/10/24 08:33:38;;;;;;;0.47;0.47;;;;;;;11.03;89.37;97478.66;4974067;28;20045;-83
2023/10/24 08:36:04;;;;;;;0.50;0.50;;;;;;;11.01;89.42;97483.06;4987653;28;20046;-82
2023/10/24 08:38:29;;;;;;;0.50;0.50;;;;;;;11.06;89.03;97491.09;4983366;28;20121;-84
2023/10/24 08:40:55;;;;;;;0.55;0.55;;;;;;;11.02;89.33;97492.88;4987166;28;20038;-83
2023/10/24 08:43:22;;;;;;;0.50;0.50;;;;;;;11.03;89.74;97494.66;4985504;28;20789;-84
2023/10/24 08:45:51;;;;;;;0.57;0.57;;;;;;;11.02;89.73;97497.34;4985651;28;20038;-82
2023/10/24 08:48:17;;;;;;;0.47;0.47;;;;;;;11.03;90.38;97499.13;4986193;28;20030;-84
2023/10/24 08:50:43;;;;;;;0.50;0.50;;;;;;;11.04;89.76;97498.22;4986111;28;20392;-85
2023/10/24 08:53:13;;;;;;;0.50;0.50;;;;;;;11.00;90.44;97505.31;4975420;28;20049;-85
2023/10/24 08:55:43;;;;;;;0.50;0.50;;;;;;;10.97;90.03;97512.38;4989069;28;20128;-86
2023/10/24 08:58:10;;;;;;;0.50;0.50;;;;;;;10.95;90.08;97514.16;4987686;28;20404;-84
2023/10/24 09:00:36;;;;;;;0.60;0.60;;;;;;;11.02;90.21;97516.03;4965665;28;20464;-84
2023/10/24 09:03:03;;;;;;;0.40;0.40;;;;;;;11.07;90.37;97510.69;4987941;28;20038;-84
2023/10/24 09:05:29;;;;;;;0.50;0.50;;;;;;;11.06;89.83;97509.78;4984919;28;20038;-84
2023/10/24 09:07:56;;;;;;;0.50;0.50;;;;;;;11.03;90.35;97512.47;4985699;28;20452;-83
2023/10/24 09:10:22;;;;;;;0.50;0.50;;;;;;;11.02;90.65;97511.56;4986699;28;20065;-84
2023/10/24 09:12:53;;;;;;;0.40;0.40;;;;;;;11.01;90.41;97507.09;4983293;28;20034;-83
2023/10/24 09:15:18;;;;;;;0.40;0.40;;;;;;;11.03;90.76;97516.03;4986235;28;20052;-83
2023/10/24 09:17:44;;;;;;;0.40;0.40;;;;;;;11.13;90.82;97510.75;4984390;28;20408;-83
2023/10/24 09:20:09;;;;;;;0.50;0.50;;;;;;;11.22;90.80;97516.16;4985748;28;20061;-85
2023/10/24 09:22:35;;;;;;;0.40;0.40;;;;;;;11.34;90.40;97508.22;4986258;28;20125;-83
2023/10/24 09:25:02;;;;;;;0.45;0.45;;;;;;;11.33;90.31;97508.22;4984321;28;20066;-83
2023/10/24 09:27:28;;;;;;;0.40;0.40;;;;;;;11.29;90.43;97513.53;4984124;28;20104;-83
2023/10/24 09:29:54;;;;;;;0.50;0.50;;;;;;;11.30;89.97;97512.63;4989005;28;20046;-83
2023/10/24 09:32:20;;;;;;;0.50;0.50;;;;;;;11.34;90.20;97510.88;4971449;28;20046;-83
2023/10/24 09:34:47;;;;;;;0.45;0.45;;;;;;;11.42;90.18;97519.84;4986608;28;20086;-84
2023/10/24 09:37:16;;;;;;;0.57;0.57;;;;;;;11.52;90.11;97511.00;4986536;28;20041;-84
2023/10/24 09:39:58;;;;;;;0.50;0.50;;;;;;;11.71;89.40;97511.09;4984538;28;20034;-84
2023/10/24 09:42:28;;;;;;;0.45;0.45;;;;;;;11.80;88.99;97508.47;4986133;28;20043;-84
2023/10/24 09:45:07;;;;;;;0.50;0.50;;;;;;;11.81;89.13;97497.78;4988042;28;20049;-84
2023/10/24 09:47:33;;;;;;;0.50;0.50;;;;;;;11.72;89.14;97507.53;4984634;28;20061;-84
2023/10/24 09:49:59;;;;;;;0.50;0.50;;;;;;;11.78;89.23;97502.22;4986566;28;20042;-83
2023/10/24 09:52:29;;;;;;;0.50;0.50;;;;;;;11.92;89.06;97503.22;4982830;28;20124;-83
2023/10/24 09:54:55;;;;;;;0.50;0.50;;;;;;;12.04;88.66;97489.91;4944027;28;20042;-83
2023/10/24 09:57:22;;;;;;;0.43;0.43;;;;;;;11.98;89.37;97486.31;4984122;28;20051;-84
2023/10/24 09:59:49;;;;;;;;;;;;;;;12.06;88.67;97487.22;4984832;28;20074;-84
2023/10/24 10:02:19;;;;;;;0.50;0.50;;;;;;;12.17;88.32;97480.16;4961010;28;19937;-83
2023/10/24 10:04:48;;;;;;;0.50;0.50;;;;;;;12.28;87.59;97477.50;4969340;28;20038;-83
2023/10/24 10:07:14;;;;;;;0.40;0.40;;;;;;;12.31;87.17;97475.72;4986340;28;20042;-86
2023/10/24 10:09:42;;;;;;;0.40;0.40;;;;;;;12.38;87.48;97467.69;4987602;28;20063;-85
2023/10/24 10:12:17;;;;;;;0.50;0.50;;;;;;;12.39;87.13;97470.38;4984725;28;20039;-84
2023/10/24 10:15:01;;;;;;;0.40;0.40;;;;;;;12.41;87.42;97471.28;4983814;28;20049;-84
2023/10/24 10:17:44;;;;;;;0.40;0.40;;;;;;;12.42;87.29;97469.50;4985610;28;20455;-85
2023/10/24 10:20:29;;;;;;;0.40;0.40;;;;;;;12.44;87.22;97471.25;4988342;28;20057;-87
2023/10/24 10:23:10;;;;;;;0.40;0.40;;;;;;;12.33;87.68;97468.59;4966002;28;20045;-85
2023/10/24 10:25:39;;;;;;;0.50;0.50;;;;;;;12.37;87.19;97472.16;4999157;28;20014;-87
2023/10/24 10:28:31;;;;;;;0.40;0.40;;;;;;;12.37;87.03;97472.16;4999950;28;20035;-82
2023/10/24 10:31:14;;;;;;;0.40;0.40;;;;;;;12.48;86.71;97453.44;5051394;23;20087;-86
2023/10/24 10:33:41;;;;;;;0.40;0.40;;;;;;;12.58;86.52;97455.22;5046850;28;20055;-86
2023/10/24 10:36:09;;;;;;;0.40;0.40;;;;;;;12.57;86.98;97446.31;5039539;28;20033;-86
2023/10/24 10:38:38;;;;;;;;;;;;;;;12.61;86.29;97449.91;5036535;28;20048;-85
2023/10/24 10:41:28;;;;;;;0.40;0.40;;;;;;;12.56;86.46;97455.25;5029318;28;19951;-86
2023/10/24 10:44:02;;;;;;;0.40;0.40;;;;;;;12.45;86.30;97454.31;5014284;28;20048;-86
2023/10/24 10:46:31;;;;;;;0.40;0.40;;;;;;;12.44;87.27;97455.22;5045844;28;20033;-86
2023/10/24 10:49:06;;;;;;;0.40;0.40;;;;;;;12.57;86.90;97454.34;5025638;28;20060;-85
2023/10/24 10:51:41;;;;;;;0.40;0.40;;;;;;;12.56;86.90;97457.03;5028909;28;20597;-86
2023/10/24 10:54:30;;;;;;;0.40;0.40;;;;;;;12.66;87.36;97452.56;5027405;28;20098;-86
2023/10/24 10:57:02;;;;;;;0.40;0.40;;;;;;;12.72;86.98;97449.88;5031837;28;20052;-86
2023/10/24 10:59:43;;;;;;;0.40;0.40;;;;;;;12.73;86.31;97443.63;5027550;28;20045;-86
2023/10/24 11:02:12;;;;;;;0.40;0.40;;;;;;;12.64;85.73;97439.19;5046229;28;20139;-86
2023/10/24 11:04:38;;;;;;;0.40;0.40;;;;;;;12.61;85.31;97427.59;5043829;28;20052;-85
2023/10/24 11:07:04;;;;;;;0.40;0.40;;;;;;;12.59;86.34;97420.44;5046742;28;20040;-86
2023/10/24 11:09:38;;;;;;;0.40;0.40;;;;;;;12.61;86.52;97425.81;5048109;28;20028;-86
2023/10/24 11:12:19;;;;;;;0.30;0.30;;;;;;;12.51;86.10;97429.38;5044976;28;20036;-86
2023/10/24 11:15:11;;;;;;;0.40;0.40;;;;;;;12.47;87.43;97420.47;5026590;28;20055;-85
2023/10/24 11:17:37;;;;;;;0.40;0.40;;;;;;;12.52;86.83;97437.41;5021960;28;20448;-85
2023/10/24 11:20:05;;;;;;;0.40;0.40;;;;;;;12.45;87.52;97424.00;5007219;28;20415;-86
2023/10/24 11:22:32;;;;;;;0.40;0.40;;;;;;;12.46;87.73;97421.34;5020415;28;20407;-85
2023/10/24 11:24:58;;;;;;;0.40;0.40;;;;;;;12.48;87.47;97418.66;5048066;28;20041;-85
2023/10/24 11:27:24;;;;;;;0.40;0.40;;;;;;;12.39;88.12;97415.97;5049078;28;20037;-85
2023/10/24 11:29:52;;;;;;;0.40;0.40;;;;;;;12.23;88.60;97405.28;5014545;28;20387;-84
2023/10/24 11:32:19;;;;;;;0.40;0.40;;;;;;;12.42;88.90;97405.31;5036995;28;20475;-88
2023/10/24 11:34:46;;;;;;;0.30;0.30;;;;;;;12.51;88.64;97402.63;5052078;28;20040;-86
2023/10/24 11:37:17;;;;;;;0.40;0.40;;;;;;;12.70;88.10;97411.56;5039582;28;20033;-87